Terminal Aerodrome Forecast
Issued by NWS Albany, NY

Home | Current Version | Previous Version | Text Only | Print | Product List | Glossary On
Versions: 1 2 3 4 5 6 7 8 9 10 11 12 13 14 15 16 17 18 19 20 21
000
FTUS41 KALY 301732
TAFPOU
TAF
KPOU 301732Z 3018/0118 03007KT P6SM BKN050
     FM010200 09008KT P6SM BKN015
     FM010700 15004KT 4SM BR OVC007
     FM011300 19007KT P6SM VCSH FEW007 OVC025
     FM011500 19007KT P6SM SCT025 OVC040=

USA.gov is the U.S. government's official web portal to all federal, state and local government web resources and services.